createdAt,value
2023-01-08T00:01:04.919Z,100235.69
2023-01-08T00:04:08.800Z,100236.44
2023-01-08T00:07:14.065Z,100229.13
2023-01-08T00:10:18.025Z,100235.63
2023-01-08T00:13:21.815Z,100233.31
2023-01-08T00:16:25.716Z,100234.47
2023-01-08T00:19:29.888Z,100237.19
2023-01-08T00:22:34.945Z,100243.53
2023-01-08T00:25:38.571Z,100237.31
2023-01-08T00:28:43.186Z,100230.00
2023-01-08T00:31:46.964Z,100231.44
2023-01-08T00:34:50.748Z,100228.34
2023-01-08T00:37:55.944Z,100233.75
2023-01-08T00:40:59.758Z,100235.94
2023-01-08T00:44:03.623Z,100232.53
2023-01-08T00:47:07.612Z,100231.75
2023-01-08T00:50:12.049Z,100235.88
2023-01-08T00:53:17.315Z,100238.69
2023-01-08T00:56:21.211Z,100238.47
2023-01-08T00:59:25.053Z,100245.53
2023-01-08T01:02:29.253Z,100244.19
2023-01-08T01:05:33.585Z,100240.53
2023-01-08T01:08:39.063Z,100239.28
2023-01-08T01:11:42.779Z,100236.97
2023-01-08T01:14:46.525Z,100227.63
2023-01-08T01:17:50.228Z,100228.91
2023-01-08T01:20:53.884Z,100227.50
2023-01-08T01:24:01.255Z,100224.47
2023-01-08T01:27:04.920Z,100222.13
2023-01-08T01:30:10.009Z,100221.38
2023-01-08T01:33:13.666Z,100215.44
2023-01-08T01:36:18.845Z,100220.41
2023-01-08T01:39:27.885Z,100215.78
2023-01-08T01:42:44.497Z,100207.31
2023-01-08T01:45:48.208Z,100213.06
2023-01-08T01:48:54.992Z,100209.09
2023-01-08T01:52:02.685Z,100200.16
2023-01-08T01:55:11.703Z,100198.47
2023-01-08T01:58:18.973Z,100203.06
2023-01-08T02:01:23.729Z,100206.47
2023-01-08T02:04:27.404Z,100207.38
2023-01-08T02:07:41.209Z,100205.31
2023-01-08T02:10:52.859Z,100194.69
2023-01-08T02:14:06.075Z,100195.03
2023-01-08T02:17:14.879Z,100193.81
2023-01-08T02:20:22.615Z,100200.88
2023-01-08T02:23:35.550Z,100201.09
2023-01-08T02:26:40.561Z,100202.66
2023-01-08T02:29:44.436Z,100195.47
2023-01-08T02:32:48.092Z,100200.88
2023-01-08T02:35:56.314Z,100202.44
2023-01-08T02:39:10.313Z,100202.38
2023-01-08T02:42:21.714Z,100187.84
2023-01-08T02:45:37.127Z,100182.81
2023-01-08T02:48:46.795Z,100185.38
2023-01-08T02:51:53.115Z,100193.78
2023-01-08T02:54:58.603Z,100188.69
2023-01-08T02:58:05.139Z,100197.75
2023-01-08T03:01:11.517Z,100192.38
2023-01-08T03:04:19.114Z,100190.75
2023-01-08T03:07:23.199Z,100182.25
2023-01-08T03:10:30.772Z,100188.91
2023-01-08T03:13:40.014Z,100193.56
2023-01-08T03:16:48.994Z,100193.97
2023-01-08T03:19:57.604Z,100191.47
2023-01-08T03:23:04.590Z,100192.69
2023-01-08T03:26:09.149Z,100198.28
2023-01-08T03:29:18.539Z,100187.63
2023-01-08T03:32:24.532Z,100184.50
2023-01-08T03:35:29.376Z,100184.72
2023-01-08T03:38:37.890Z,100189.22
2023-01-08T03:41:41.612Z,100186.97
2023-01-08T03:44:46.867Z,100184.44
2023-01-08T03:47:51.885Z,100181.66
2023-01-08T03:50:55.623Z,100181.25
2023-01-08T03:54:01.265Z,100183.94
2023-01-08T03:57:05.063Z,100176.88
2023-01-08T04:00:11.978Z,100185.53
2023-01-08T04:03:15.575Z,100180.78
2023-01-08T04:06:19.137Z,100181.16
2023-01-08T04:09:22.744Z,100181.00
2023-01-08T04:12:26.353Z,100185.34
2023-01-08T04:15:31.502Z,100188.03
2023-01-08T04:18:35.720Z,100193.44
2023-01-08T04:21:39.876Z,100188.88
2023-01-08T04:24:43.627Z,100198.41
2023-01-08T04:27:47.133Z,100199.44
2023-01-08T04:30:52.238Z,100197.97
2023-01-08T04:33:55.806Z,100202.47
2023-01-08T04:36:59.508Z,100206.72
2023-01-08T04:40:03.199Z,100206.84
2023-01-08T04:43:06.825Z,100203.75
2023-01-08T04:46:12.076Z,100209.44
2023-01-08T04:49:16.076Z,100215.88
2023-01-08T04:52:19.738Z,100218.56
2023-01-08T04:55:23.330Z,100217.22
2023-01-08T04:58:26.935Z,100216.00
2023-01-08T05:01:32.144Z,100222.63
2023-01-08T05:04:35.823Z,100224.19
2023-01-08T05:07:39.469Z,100223.13
2023-01-08T05:10:43.081Z,100226.25
2023-01-08T05:13:50.229Z,100222.63
2023-01-08T05:16:55.308Z,100220.13
2023-01-08T05:19:58.864Z,100230.00
2023-01-08T05:23:03.016Z,100223.34
2023-01-08T05:26:08.387Z,100226.88
2023-01-08T05:29:12.135Z,100226.47
2023-01-08T05:32:19.124Z,100227.78
2023-01-08T05:35:22.786Z,100228.19
2023-01-08T05:38:26.462Z,100231.19
2023-01-08T05:41:30.015Z,100233.84
2023-01-08T05:44:33.720Z,100228.91
2023-01-08T05:47:38.703Z,100233.03
2023-01-08T05:50:42.541Z,100236.97
2023-01-08T05:53:48.236Z,100237.16
2023-01-08T05:56:51.835Z,100238.00
2023-01-08T05:59:55.453Z,100243.25
2023-01-08T06:03:00.642Z,100237.75
2023-01-08T06:06:06.591Z,100241.63
2023-01-08T06:09:10.525Z,100244.19
2023-01-08T06:12:14.179Z,100238.06
2023-01-08T06:15:17.931Z,100242.66
2023-01-08T06:18:23.027Z,100239.13
2023-01-08T06:21:26.681Z,100247.44
2023-01-08T06:24:30.319Z,100249.50
2023-01-08T06:27:33.867Z,100250.84
2023-01-08T06:30:37.475Z,100248.72
2023-01-08T06:33:42.560Z,100255.06
2023-01-08T06:36:46.163Z,100266.72
2023-01-08T06:39:49.771Z,100266.63
2023-01-08T06:42:53.745Z,100268.91
2023-01-08T06:45:58.688Z,100262.03
2023-01-08T06:49:03.969Z,100278.97
2023-01-08T06:52:07.844Z,100276.97
2023-01-08T06:55:11.993Z,100287.91
2023-01-08T06:58:15.713Z,100281.81
2023-01-08T07:01:19.962Z,100283.72
2023-01-08T07:04:25.559Z,100284.03
2023-01-08T07:07:29.445Z,100283.63
2023-01-08T07:10:33.296Z,100279.06
2023-01-08T07:13:37.109Z,100282.31
2023-01-08T07:16:40.953Z,100285.53
2023-01-08T07:19:46.073Z,100286.19
2023-01-08T07:22:49.804Z,100292.00
2023-01-08T07:25:53.599Z,100295.91
2023-01-08T07:28:57.373Z,100305.34
2023-01-08T07:32:01.078Z,100301.31
2023-01-08T07:35:06.927Z,100291.84
2023-01-08T07:38:10.739Z,100304.91
2023-01-08T07:41:14.634Z,100305.00
2023-01-08T07:44:18.552Z,100307.72
2023-01-08T07:47:22.470Z,100304.56
2023-01-08T07:50:28.731Z,100310.63
2023-01-08T07:53:32.696Z,100304.63
2023-01-08T07:56:36.530Z,100304.44
2023-01-08T07:59:40.374Z,100297.97
2023-01-08T08:02:44.425Z,100303.16
2023-01-08T08:05:49.724Z,100306.03
2023-01-08T08:08:53.514Z,100306.63
2023-01-08T08:11:57.498Z,100306.09
2023-01-08T08:15:01.282Z,100304.03
2023-01-08T08:18:05.714Z,100305.41
2023-01-08T08:21:11.046Z,100310.38
2023-01-08T08:24:14.781Z,100304.19
2023-01-08T08:27:18.592Z,100304.31
2023-01-08T08:30:22.384Z,100308.72
2023-01-08T08:33:26.145Z,100308.22
2023-01-08T08:36:32.498Z,100303.47
2023-01-08T08:39:36.448Z,100304.66
2023-01-08T08:42:40.234Z,100301.13
2023-01-08T08:45:44.312Z,100302.06
2023-01-08T08:48:48.378Z,100298.00
2023-01-08T08:51:53.707Z,100302.34
2023-01-08T08:54:57.507Z,100301.88
2023-01-08T08:58:06.273Z,100295.88
2023-01-08T09:01:10.068Z,100294.84
2023-01-08T09:04:13.991Z,100297.00
2023-01-08T09:07:19.354Z,100286.78
2023-01-08T09:10:23.375Z,100285.69
2023-01-08T09:13:27.104Z,100281.31
2023-01-08T09:16:30.980Z,100289.50
2023-01-08T09:19:34.825Z,100274.88
2023-01-08T09:22:40.153Z,100275.22
2023-01-08T09:25:44.000Z,100271.13
2023-01-08T09:28:47.868Z,100264.28
2023-01-08T09:31:51.891Z,100267.06
2023-01-08T09:34:55.763Z,100262.38
2023-01-08T09:38:01.194Z,100262.59
2023-01-08T09:41:08.312Z,100248.75
2023-01-08T09:44:17.287Z,100245.81
2023-01-08T09:47:26.833Z,100235.50
2023-01-08T09:50:33.333Z,100232.06
2023-01-08T09:53:38.725Z,100235.91
2023-01-08T09:56:43.243Z,100234.56
2023-01-08T09:59:49.034Z,100225.34
2023-01-08T10:02:54.656Z,100219.75
2023-01-08T10:05:58.635Z,100219.91
2023-01-08T10:09:05.417Z,100209.03
2023-01-08T10:12:14.433Z,100205.06
2023-01-08T10:15:20.747Z,100211.38
2023-01-08T10:18:27.364Z,100198.69
2023-01-08T10:21:33.395Z,100189.22
2023-01-08T10:24:40.894Z,100190.53
2023-01-08T10:27:50.346Z,100183.84
2023-01-08T10:30:56.132Z,100183.91
2023-01-08T10:34:10.961Z,100181.94
2023-01-08T10:37:24.694Z,100169.59
2023-01-08T10:40:38.583Z,100166.28
2023-01-08T10:43:52.354Z,100163.53
2023-01-08T10:47:00.404Z,100158.28
2023-01-08T10:50:07.033Z,100153.50
2023-01-08T10:53:26.071Z,100151.22
2023-01-08T10:56:41.843Z,100137.88
2023-01-08T10:59:45.658Z,100141.66
2023-01-08T11:02:50.853Z,100130.84
2023-01-08T11:05:54.674Z,100131.31
2023-01-08T11:09:01.464Z,100127.19
2023-01-08T11:12:22.713Z,100127.63
2023-01-08T11:15:32.751Z,100116.78
2023-01-08T11:18:45.393Z,100116.16
2023-01-08T11:21:57.953Z,100112.19
2023-01-08T11:25:01.746Z,100111.19
2023-01-08T11:28:08.701Z,100111.72
2023-01-08T11:31:16.704Z,100109.09
2023-01-08T11:34:26.519Z,100100.97
2023-01-08T11:37:34.913Z,100096.38
2023-01-08T11:40:47.754Z,100093.56
2023-01-08T11:44:06.777Z,100085.56
2023-01-08T11:47:18.464Z,100084.72
2023-01-08T11:50:29.177Z,100082.41
2023-01-08T11:53:40.018Z,100078.25
2023-01-08T11:57:05.457Z,100079.00
2023-01-08T12:00:39.675Z,100079.47
2023-01-08T12:03:48.680Z,100065.00
2023-01-08T12:07:01.491Z,100067.94
2023-01-08T12:10:15.419Z,100069.25
2023-01-08T12:13:36.152Z,100060.72
2023-01-08T12:16:56.087Z,100055.94
2023-01-08T12:20:13.847Z,100052.81
2023-01-08T12:23:32.356Z,100053.31
2023-01-08T12:26:46.834Z,100054.47
2023-01-08T12:30:05.323Z,100055.78
2023-01-08T12:33:14.967Z,100062.50
2023-01-08T12:36:28.597Z,100056.13
2023-01-08T12:39:40.424Z,100049.19
2023-01-08T12:42:47.392Z,100061.72
2023-01-08T12:45:58.525Z,100052.00
2023-01-08T12:49:06.316Z,100050.66
2023-01-08T12:52:18.123Z,100054.94
2023-01-08T12:55:33.454Z,100052.34
2023-01-08T12:58:50.216Z,100052.63
2023-01-08T13:02:02.819Z,100057.41
2023-01-08T13:05:15.652Z,100054.16
2023-01-08T13:08:34.467Z,100053.13
2023-01-08T13:11:42.495Z,100049.53
2023-01-08T13:14:51.784Z,100042.56
2023-01-08T13:17:57.755Z,100045.38
2023-01-08T13:21:04.585Z,100043.28
2023-01-08T13:24:27.026Z,100048.72
2023-01-08T13:27:31.505Z,100052.34
2023-01-08T13:30:39.064Z,100051.38
2023-01-08T13:33:43.582Z,100047.03
2023-01-08T13:36:58.767Z,100042.63
2023-01-08T13:40:04.274Z,100050.19
2023-01-08T13:43:14.806Z,100041.13
2023-01-08T13:46:20.727Z,100042.94
2023-01-08T13:49:30.296Z,100038.97
2023-01-08T13:52:43.193Z,100034.88
2023-01-08T13:55:57.286Z,100048.53
2023-01-08T13:59:01.232Z,100044.81
2023-01-08T14:02:05.969Z,100039.34
2023-01-08T14:05:20.993Z,100051.94
2023-01-08T14:08:27.645Z,100051.91
2023-01-08T14:11:34.106Z,100042.84
2023-01-08T14:14:40.736Z,100040.47
2023-01-08T14:17:46.106Z,100033.38
2023-01-08T14:20:52.633Z,100037.00
2023-01-08T14:23:58.115Z,100038.16
2023-01-08T14:27:02.264Z,100041.41
2023-01-08T14:30:17.560Z,100039.63
2023-01-08T14:33:26.104Z,100031.00
2023-01-08T14:36:29.935Z,100040.91
2023-01-08T14:39:38.606Z,100033.84
2023-01-08T14:42:47.463Z,100037.91
2023-01-08T14:45:54.134Z,100030.53
2023-01-08T14:48:58.774Z,100033.16
2023-01-08T14:52:04.174Z,100033.44
2023-01-08T14:55:18.867Z,100038.59
2023-01-08T14:58:25.746Z,100040.84
2023-01-08T15:01:31.758Z,100032.84
2023-01-08T15:04:35.764Z,100034.78
2023-01-08T15:07:39.636Z,100033.72
2023-01-08T15:10:44.882Z,100035.63
2023-01-08T15:13:50.535Z,100042.25
2023-01-08T15:16:56.343Z,100039.78
2023-01-08T15:20:02.210Z,100038.19
2023-01-08T15:23:06.137Z,100044.94
2023-01-08T15:26:16.109Z,100036.59
2023-01-08T15:29:21.664Z,100041.16
2023-01-08T15:32:28.962Z,100040.78
2023-01-08T15:35:32.744Z,100040.81
2023-01-08T15:38:36.523Z,100044.50
2023-01-08T15:41:59.837Z,100040.69
2023-01-08T15:45:03.809Z,100046.41
2023-01-08T15:48:08.647Z,100041.09
2023-01-08T15:51:12.514Z,100035.06
2023-01-08T15:54:16.915Z,100035.31
2023-01-08T15:57:22.404Z,100033.69
2023-01-08T16:00:26.314Z,100028.19
2023-01-08T16:03:30.943Z,100043.19
2023-01-08T16:06:36.352Z,100041.53
2023-01-08T16:09:40.173Z,100045.25
2023-01-08T16:12:45.900Z,100043.06
2023-01-08T16:15:49.701Z,100040.94
2023-01-08T16:18:53.897Z,100041.09
2023-01-08T16:21:57.727Z,100040.25
2023-01-08T16:25:01.475Z,100049.25
2023-01-08T16:28:07.094Z,100050.75
2023-01-08T16:31:11.477Z,100052.22
2023-01-08T16:34:15.793Z,100047.13
2023-01-08T16:37:19.625Z,100050.94
2023-01-08T16:40:23.425Z,100047.94
2023-01-08T16:43:30.175Z,100052.91
2023-01-08T16:46:34.092Z,100063.88
2023-01-08T16:49:38.407Z,100062.91
2023-01-08T16:52:43.272Z,100061.78
2023-01-08T16:55:46.937Z,100062.75
2023-01-08T16:58:53.595Z,100070.69
2023-01-08T17:01:57.427Z,100067.09
2023-01-08T17:05:01.331Z,100068.72
2023-01-08T17:08:05.435Z,100072.81
2023-01-08T17:11:11.539Z,100079.25
2023-01-08T17:14:17.065Z,100072.59
2023-01-08T17:17:20.869Z,100073.75
2023-01-08T17:20:24.754Z,100068.78
2023-01-08T17:23:29.127Z,100073.31
2023-01-08T17:26:32.992Z,100077.34
2023-01-08T17:29:38.327Z,100075.16
2023-01-08T17:32:42.374Z,100076.78
2023-01-08T17:35:46.393Z,100082.50
2023-01-08T17:38:50.939Z,100077.72
2023-01-08T17:42:11.795Z,100090.25
2023-01-08T17:45:17.564Z,100087.34
2023-01-08T17:48:21.275Z,100087.53
2023-01-08T17:51:24.953Z,100084.88
2023-01-08T17:54:29.038Z,100087.28
2023-01-08T17:57:32.973Z,100091.69
2023-01-08T18:00:38.369Z,100088.88
2023-01-08T18:03:42.156Z,100092.56
2023-01-08T18:06:46.355Z,100094.03
2023-01-08T18:09:52.990Z,100083.97
2023-01-08T18:12:56.724Z,100090.84
2023-01-08T18:16:04.982Z,100092.75
2023-01-08T18:19:08.763Z,100086.25
2023-01-08T18:22:12.535Z,100093.41
2023-01-08T18:25:16.343Z,100094.06
2023-01-08T18:28:20.603Z,100101.41
2023-01-08T18:31:26.143Z,100106.72
2023-01-08T18:34:29.943Z,100100.50
2023-01-08T18:37:34.625Z,100102.50
2023-01-08T18:40:38.333Z,100104.28
2023-01-08T18:43:42.184Z,100105.00
2023-01-08T18:46:48.281Z,100114.00
2023-01-08T18:49:53.433Z,100107.63
2023-01-08T18:52:57.315Z,100107.97
2023-01-08T18:56:01.694Z,100111.84
2023-01-08T18:59:06.729Z,100104.63
2023-01-08T19:02:19.473Z,100112.56
2023-01-08T19:05:23.729Z,100116.56
2023-01-08T19:08:27.584Z,100115.44
2023-01-08T19:11:31.363Z,100112.31
2023-01-08T19:14:35.196Z,100109.25
2023-01-08T19:17:40.905Z,100110.88
2023-01-08T19:20:46.454Z,100112.66
2023-01-08T19:23:50.628Z,100120.03
2023-01-08T19:26:54.490Z,100119.19
2023-01-08T19:29:58.176Z,100122.63
2023-01-08T19:33:03.480Z,100116.94
2023-01-08T19:36:12.935Z,100130.34
2023-01-08T19:39:16.775Z,100123.72
2023-01-08T19:42:38.124Z,100126.78
2023-01-08T19:45:41.914Z,100127.72
2023-01-08T19:48:47.403Z,100129.41
2023-01-08T19:51:51.192Z,100128.31
2023-01-08T19:54:55.451Z,100125.34
2023-01-08T19:57:59.973Z,100125.38
2023-01-08T20:01:10.353Z,100128.44
2023-01-08T20:04:15.993Z,100128.53
2023-01-08T20:07:19.794Z,100127.84
2023-01-08T20:10:23.603Z,100132.44
2023-01-08T20:13:27.496Z,100121.94
2023-01-08T20:16:31.611Z,100131.25
2023-01-08T20:19:37.645Z,100131.97
2023-01-08T20:22:41.556Z,100127.13
2023-01-08T20:25:45.792Z,100132.69
2023-01-08T20:28:50.752Z,100131.63
2023-01-08T20:31:59.606Z,100140.97
2023-01-08T20:35:05.007Z,100140.41
2023-01-08T20:38:09.244Z,100135.75
2023-01-08T20:41:13.662Z,100133.28
2023-01-08T20:44:17.683Z,100139.34
2023-01-08T20:47:21.583Z,100139.19
2023-01-08T20:50:26.992Z,100137.78
2023-01-08T20:53:31.093Z,100140.72
2023-01-08T20:56:35.382Z,100140.25
2023-01-08T20:59:39.202Z,100136.25
2023-01-08T21:02:43.961Z,100136.97
2023-01-08T21:05:49.471Z,100137.66
2023-01-08T21:08:54.770Z,100139.88
2023-01-08T21:11:58.615Z,100129.31
2023-01-08T21:15:02.451Z,100131.81
2023-01-08T21:18:06.558Z,100127.31
2023-01-08T21:21:13.603Z,100130.28
2023-01-08T21:24:17.391Z,100140.78
2023-01-08T21:27:21.274Z,100145.31
2023-01-08T21:30:25.193Z,100132.41
2023-01-08T21:33:29.014Z,100132.19
2023-01-08T21:36:34.552Z,100134.94
2023-01-08T21:39:38.475Z,100137.66
2023-01-08T21:42:59.501Z,100141.22
2023-01-08T21:46:04.076Z,100136.81
2023-01-08T21:49:07.935Z,100137.66
2023-01-08T21:52:30.764Z,100142.34
2023-01-08T21:55:35.276Z,100148.13
2023-01-08T21:58:39.034Z,100144.63
2023-01-08T22:01:42.875Z,100140.31
2023-01-08T22:04:47.413Z,100146.00
2023-01-08T22:07:52.743Z,100147.13
2023-01-08T22:10:56.653Z,100146.94
2023-01-08T22:14:00.365Z,100140.94
2023-01-08T22:17:08.652Z,100146.94
2023-01-08T22:20:13.685Z,100141.81
2023-01-08T22:23:19.043Z,100149.84
2023-01-08T22:26:22.804Z,100149.78
2023-01-08T22:29:26.733Z,100151.03
2023-01-08T22:32:30.625Z,100143.72
2023-01-08T22:35:34.562Z,100140.78
2023-01-08T22:38:40.105Z,100149.41
2023-01-08T22:41:44.732Z,100143.41
2023-01-08T22:44:50.584Z,100142.38
2023-01-08T22:47:54.418Z,100138.84
2023-01-08T22:51:03.810Z,100129.47
2023-01-08T22:54:09.124Z,100136.66
2023-01-08T22:57:12.904Z,100130.28
2023-01-08T23:00:17.539Z,100131.16
2023-01-08T23:03:21.455Z,100133.00
2023-01-08T23:06:27.591Z,100134.66
2023-01-08T23:09:32.899Z,100125.91
2023-01-08T23:12:36.785Z,100133.03
2023-01-08T23:15:40.593Z,100143.03
2023-01-08T23:18:44.925Z,100133.25
2023-01-08T23:21:48.672Z,100126.34
2023-01-08T23:24:53.934Z,100114.13
2023-01-08T23:27:57.791Z,100122.28
2023-01-08T23:31:02.015Z,100121.59
2023-01-08T23:34:06.245Z,100122.94
2023-01-08T23:37:10.036Z,100120.13
2023-01-08T23:40:16.280Z,100126.00
2023-01-08T23:43:20.190Z,100117.84
2023-01-08T23:46:24.049Z,100115.66
2023-01-08T23:49:27.853Z,100122.28
2023-01-08T23:52:31.522Z,100126.44
2023-01-08T23:55:36.903Z,100126.84
2023-01-08T23:58:40.854Z,100126.06
